Time;durP1;ratioP1;P1;durP2;ratioP2;P2;SDS_P1;SDS_P2;PMS_P1;PMS_P2;Temp;Humidity;BMP_temperature;BMP_pressure;BME280_temperature;BME280_humidity;BME280_pressure;Samples;Min_cycle;Max_cycle;Signal;HPM_P1;HPM_P2
2021/05/19 00:01:18;;;;;;;497.55;289.38;;;;;;;;;;5083230;28;20020;-78
2021/05/19 00:03:44;;;;;;;509.27;287.17;;;;;;;;;;5062465;28;20343;-77
2021/05/19 00:06:12;;;;;;;510.33;299.77;;;;;;;;;;5065955;28;20046;-77
2021/05/19 00:08:38;;;;;;;501.20;291.10;;;;;;;;;;5081340;28;20075;-77
2021/05/19 00:11:04;;;;;;;503.70;285.02;;;;;;;;;;5066637;28;20098;-77
2021/05/19 00:13:32;;;;;;;499.70;290.05;;;;;;;;;;5079132;28;20396;-77
2021/05/19 00:15:58;;;;;;;504.55;297.10;;;;;;;;;;5082924;28;20016;-77
2021/05/19 00:18:25;;;;;;;511.38;306.67;;;;;;;;;;5060871;28;20048;-77
2021/05/19 00:20:51;;;;;;;499.50;286.65;;;;;;;;;;5059871;28;20032;-77
2021/05/19 00:23:16;;;;;;;514.13;300.30;;;;;;;;;;5061999;28;20021;-77
2021/05/19 00:25:42;;;;;;;499.85;285.02;;;;;;;;;;5059946;28;20071;-77
2021/05/19 00:28:08;;;;;;;501.58;294.00;;;;;;;;;;5084002;28;20020;-76
2021/05/19 00:30:36;;;;;;;502.05;289.27;;;;;;;;;;5083192;28;20047;-78
2021/05/19 00:33:03;;;;;;;500.73;288.48;;;;;;;;;;5060611;28;20020;-76
2021/05/19 00:35:29;;;;;;;496.73;288.40;;;;;;;;;;5063558;28;20036;-77
2021/05/19 00:37:55;;;;;;;499.13;293.48;;;;;;;;;;5076741;28;20037;-77
2021/05/19 00:40:21;;;;;;;500.65;292.23;;;;;;;;;;5059944;28;20015;-77
2021/05/19 00:42:47;;;;;;;504.10;293.50;;;;;;;;;;5071299;28;20032;-77
2021/05/19 00:45:13;;;;;;;505.83;303.27;;;;;;;;;;5064280;28;20414;-77
2021/05/19 00:47:40;;;;;;;504.80;294.70;;;;;;;;;;5076827;28;20055;-76
2021/05/19 00:50:08;;;;;;;525.17;305.65;;;;;;;;;;5061668;28;20017;-76
2021/05/19 00:52:34;;;;;;;509.55;301.80;;;;;;;;;;5061891;28;20405;-76
2021/05/19 00:55:00;;;;;;;511.67;300.92;;;;;;;;;;5077988;28;20017;-77
2021/05/19 00:57:26;;;;;;;510.10;298.88;;;;;;;;;;5083622;28;20032;-76
2021/05/19 00:59:52;;;;;;;527.08;306.08;;;;;;;;;;5055090;28;20101;-76
2021/05/19 01:02:18;;;;;;;569.20;326.13;;;;;;;;;;5059595;28;20016;-76
2021/05/19 01:04:45;;;;;;;532.90;317.85;;;;;;;;;;5063296;28;20020;-75
2021/05/19 01:07:32;;;;;;;556.95;331.98;;;;;;;;;;5064247;28;20462;-77
2021/05/19 01:09:59;;;;;;;559.80;332.38;;;;;;;;;;5081488;28;20072;-76
2021/05/19 01:12:25;;;;;;;549.22;332.25;;;;;;;;;;5082451;28;20330;-76
2021/05/19 01:14:52;;;;;;;581.00;341.40;;;;;;;;;;5067192;28;20012;-77
2021/05/19 01:17:18;;;;;;;557.08;332.38;;;;;;;;;;5061513;28;20035;-76
2021/05/19 01:19:45;;;;;;;589.22;351.33;;;;;;;;;;5072797;28;20515;-77
2021/05/19 01:22:11;;;;;;;581.85;350.60;;;;;;;;;;5077564;28;20602;-76
2021/05/19 01:24:38;;;;;;;595.85;349.92;;;;;;;;;;5059087;28;20035;-78
2021/05/19 01:27:04;;;;;;;622.33;373.95;;;;;;;;;;5081556;28;20043;-76
2021/05/19 01:29:30;;;;;;;649.53;393.25;;;;;;;;;;5073123;28;20056;-77
2021/05/19 01:31:56;;;;;;;676.22;401.00;;;;;;;;;;5067865;28;20046;-76
2021/05/19 01:34:22;;;;;;;694.40;421.23;;;;;;;;;;5058232;28;20366;-76
2021/05/19 01:36:48;;;;;;;520.35;321.73;;;;;;;;;;5062068;28;20024;-77
2021/05/19 01:39:14;;;;;;;494.83;308.88;;;;;;;;;;5080705;28;20111;-76
2021/05/19 01:41:40;;;;;;;478.27;293.67;;;;;;;;;;5060015;28;20677;-76
2021/05/19 01:44:14;;;;;;;484.58;308.60;;;;;;;;;;5058983;28;20027;-75
2021/05/19 01:46:41;;;;;;;481.80;301.63;;;;;;;;;;5067363;28;20043;-77
2021/05/19 01:49:07;;;;;;;480.00;304.83;;;;;;;;;;5079899;28;20017;-76
2021/05/19 01:51:35;;;;;;;478.65;296.42;;;;;;;;;;5056557;28;21167;-77
2021/05/19 01:54:01;;;;;;;479.35;301.58;;;;;;;;;;5080741;28;20033;-77
2021/05/19 01:56:27;;;;;;;485.00;306.58;;;;;;;;;;5058482;28;20109;-76
2021/05/19 01:58:53;;;;;;;481.98;308.33;;;;;;;;;;5073265;28;20077;-77
2021/05/19 02:01:19;;;;;;;484.08;303.40;;;;;;;;;;5055699;28;20020;-76
2021/05/19 02:03:45;;;;;;;480.98;300.63;;;;;;;;;;5064291;28;20387;-76
2021/05/19 02:06:11;;;;;;;485.33;302.83;;;;;;;;;;5064113;28;20024;-76
2021/05/19 02:08:37;;;;;;;484.20;301.38;;;;;;;;;;5063385;28;20035;-76
2021/05/19 02:11:03;;;;;;;488.73;305.17;;;;;;;;;;5061604;28;20020;-76
2021/05/19 02:13:29;;;;;;;485.40;304.08;;;;;;;;;;5060598;28;20021;-76
2021/05/19 02:15:55;;;;;;;484.67;311.20;;;;;;;;;;5054106;28;20019;-77
2021/05/19 02:18:21;;;;;;;484.55;311.77;;;;;;;;;;5080521;28;20359;-76
2021/05/19 02:20:48;;;;;;;482.35;306.27;;;;;;;;;;5059384;28;20030;-79
2021/05/19 02:23:14;;;;;;;481.52;310.73;;;;;;;;;;5063118;28;20032;-77
2021/05/19 02:25:40;;;;;;;470.48;302.38;;;;;;;;;;5084598;28;20023;-76
2021/05/19 02:28:06;;;;;;;466.80;303.42;;;;;;;;;;5062705;28;20553;-76
2021/05/19 02:30:33;;;;;;;474.85;308.65;;;;;;;;;;5081703;28;20094;-77
2021/05/19 02:32:58;;;;;;;475.65;310.65;;;;;;;;;;5082411;28;20008;-76
2021/05/19 02:35:24;;;;;;;474.73;307.90;;;;;;;;;;5066248;28;20458;-76
2021/05/19 02:37:50;;;;;;;471.65;296.92;;;;;;;;;;5084711;28;20073;-76
2021/05/19 02:40:17;;;;;;;478.15;308.85;;;;;;;;;;5059653;28;20626;-77
2021/05/19 02:42:44;;;;;;;476.30;303.85;;;;;;;;;;5084562;28;20016;-77
2021/05/19 02:45:10;;;;;;;473.55;304.98;;;;;;;;;;5060685;28;20031;-76
2021/05/19 02:47:36;;;;;;;474.00;306.13;;;;;;;;;;5055062;28;20029;-76
2021/05/19 02:50:04;;;;;;;471.95;308.80;;;;;;;;;;5075761;28;20162;-77
2021/05/19 02:52:29;;;;;;;470.70;294.20;;;;;;;;;;5078259;28;20020;-77
2021/05/19 02:54:55;;;;;;;474.55;302.38;;;;;;;;;;5076046;28;20047;-77
2021/05/19 02:57:21;;;;;;;472.60;301.63;;;;;;;;;;5059954;28;20032;-76
2021/05/19 02:59:47;;;;;;;469.10;298.80;;;;;;;;;;5063469;28;20085;-76
2021/05/19 03:02:14;;;;;;;468.13;302.45;;;;;;;;;;5073808;28;20475;-77
2021/05/19 03:04:41;;;;;;;474.10;305.75;;;;;;;;;;5075781;28;20027;-77
2021/05/19 03:07:08;;;;;;;480.48;309.90;;;;;;;;;;5058583;28;20085;-77
2021/05/19 03:09:34;;;;;;;472.08;301.73;;;;;;;;;;5079992;28;20111;-76
2021/05/19 03:12:01;;;;;;;467.48;296.58;;;;;;;;;;5083497;28;20152;-76
2021/05/19 03:14:27;;;;;;;470.27;298.23;;;;;;;;;;5060484;28;20023;-76
2021/05/19 03:16:53;;;;;;;473.02;305.63;;;;;;;;;;5080597;28;20384;-76
2021/05/19 03:19:19;;;;;;;471.90;295.77;;;;;;;;;;5085038;28;20036;-77
2021/05/19 03:21:45;;;;;;;475.27;303.45;;;;;;;;;;5065229;28;20035;-77
2021/05/19 03:24:11;;;;;;;483.17;305.48;;;;;;;;;;5080284;28;20388;-76
2021/05/19 03:26:37;;;;;;;480.67;304.80;;;;;;;;;;5061700;28;20025;-76
2021/05/19 03:29:03;;;;;;;476.08;303.33;;;;;;;;;;5054570;28;20049;-77
2021/05/19 03:31:29;;;;;;;480.17;301.25;;;;;;;;;;5064576;28;20024;-76
2021/05/19 03:33:55;;;;;;;507.23;300.00;;;;;;;;;;5074585;28;20444;-76
2021/05/19 03:36:21;;;;;;;472.20;302.30;;;;;;;;;;5060041;28;20016;-76
2021/05/19 03:38:46;;;;;;;479.88;312.33;;;;;;;;;;5075562;28;20071;-76
2021/05/19 03:41:12;;;;;;;477.17;310.05;;;;;;;;;;5078830;28;20028;-78
2021/05/19 03:43:38;;;;;;;476.60;299.75;;;;;;;;;;5080479;28;20039;-76
2021/05/19 03:46:05;;;;;;;475.17;305.25;;;;;;;;;;5058432;28;20019;-76
2021/05/19 03:48:31;;;;;;;472.20;301.17;;;;;;;;;;5067314;28;20012;-76
2021/05/19 03:50:57;;;;;;;477.38;304.13;;;;;;;;;;5084269;28;20024;-76
2021/05/19 03:53:23;;;;;;;480.10;302.30;;;;;;;;;;5075368;28;20023;-76
2021/05/19 03:55:49;;;;;;;475.33;303.00;;;;;;;;;;5081030;28;20035;-76
2021/05/19 03:58:15;;;;;;;475.13;303.92;;;;;;;;;;5069129;28;20518;-76
2021/05/19 04:00:42;;;;;;;479.02;302.55;;;;;;;;;;5064016;28;20101;-76
2021/05/19 04:03:08;;;;;;;478.35;307.48;;;;;;;;;;5078852;28;20008;-77
2021/05/19 04:05:36;;;;;;;475.63;302.75;;;;;;;;;;5065446;28;20077;-76
2021/05/19 04:08:03;;;;;;;481.88;304.20;;;;;;;;;;5065074;28;20021;-77
2021/05/19 04:10:28;;;;;;;477.95;302.08;;;;;;;;;;5079591;28;20044;-77
2021/05/19 04:12:55;;;;;;;481.63;310.90;;;;;;;;;;5061839;28;20059;-76
2021/05/19 04:15:22;;;;;;;482.77;309.15;;;;;;;;;;5079776;28;20046;-76
2021/05/19 04:17:49;;;;;;;480.50;305.40;;;;;;;;;;5076055;28;20067;-76
2021/05/19 04:20:15;;;;;;;482.85;312.15;;;;;;;;;;5064427;28;20071;-76
2021/05/19 04:22:42;;;;;;;480.75;302.65;;;;;;;;;;5081391;28;20016;-76
2021/05/19 04:25:08;;;;;;;487.98;311.05;;;;;;;;;;5087743;28;20024;-76
2021/05/19 04:27:35;;;;;;;485.45;306.27;;;;;;;;;;5067076;28;20115;-77
2021/05/19 04:30:01;;;;;;;486.00;307.83;;;;;;;;;;5079977;28;20040;-76
2021/05/19 04:32:26;;;;;;;482.60;311.20;;;;;;;;;;5066535;28;20097;-75
2021/05/19 04:34:52;;;;;;;481.88;311.13;;;;;;;;;;5085323;28;20438;-76
2021/05/19 04:37:18;;;;;;;484.10;306.38;;;;;;;;;;5060614;28;20062;-77
2021/05/19 04:39:44;;;;;;;480.70;314.52;;;;;;;;;;5073785;28;20036;-78
2021/05/19 04:42:10;;;;;;;475.83;308.85;;;;;;;;;;5070853;28;20086;-76
2021/05/19 04:44:36;;;;;;;476.80;311.45;;;;;;;;;;5077945;28;20504;-76
2021/05/19 04:47:02;;;;;;;476.50;303.85;;;;;;;;;;5065609;28;20024;-76
2021/05/19 04:49:28;;;;;;;482.55;315.15;;;;;;;;;;5066240;28;20080;-76
2021/05/19 04:51:54;;;;;;;486.17;316.65;;;;;;;;;;5064720;28;20028;-76
2021/05/19 04:54:20;;;;;;;482.92;315.10;;;;;;;;;;5078029;28;20027;-76
2021/05/19 04:56:47;;;;;;;477.83;309.58;;;;;;;;;;5080949;28;20450;-77
2021/05/19 04:59:13;;;;;;;476.65;313.30;;;;;;;;;;5081393;28;20084;-77
2021/05/19 05:01:39;;;;;;;476.65;309.23;;;;;;;;;;5075816;28;20055;-77
2021/05/19 05:04:05;;;;;;;475.42;304.88;;;;;;;;;;5067533;28;20024;-76
2021/05/19 05:06:31;;;;;;;478.00;306.38;;;;;;;;;;5063060;28;20458;-77
2021/05/19 05:08:57;;;;;;;477.35;308.13;;;;;;;;;;5078158;28;20158;-74
2021/05/19 05:11:23;;;;;;;475.08;309.48;;;;;;;;;;5069123;28;20130;-76
2021/05/19 05:13:50;;;;;;;481.08;320.50;;;;;;;;;;5081848;28;20012;-76
2021/05/19 05:16:16;;;;;;;477.65;308.98;;;;;;;;;;5065235;28;20036;-76
2021/05/19 05:18:42;;;;;;;475.55;308.00;;;;;;;;;;5084241;28;20028;-76
2021/05/19 05:21:09;;;;;;;482.85;315.52;;;;;;;;;;5079377;28;20312;-77
2021/05/19 05:23:35;;;;;;;480.63;308.20;;;;;;;;;;5062479;28;20020;-77
2021/05/19 05:26:01;;;;;;;485.90;320.42;;;;;;;;;;5079707;28;20092;-77
2021/05/19 05:28:27;;;;;;;482.20;315.67;;;;;;;;;;5060553;28;20319;-77
2021/05/19 05:30:55;;;;;;;485.27;318.65;;;;;;;;;;5078993;28;20373;-79
2021/05/19 05:33:20;;;;;;;481.15;311.88;;;;;;;;;;5078810;28;20694;-76
2021/05/19 05:35:47;;;;;;;477.52;309.75;;;;;;;;;;5080902;28;20056;-77
2021/05/19 05:38:12;;;;;;;490.15;321.15;;;;;;;;;;5079124;28;20070;-76
2021/05/19 05:40:39;;;;;;;486.33;318.35;;;;;;;;;;5060726;28;20125;-76
2021/05/19 05:43:05;;;;;;;484.58;313.20;;;;;;;;;;5075942;28;20373;-76
2021/05/19 05:45:31;;;;;;;482.95;310.20;;;;;;;;;;5083292;28;20024;-76
2021/05/19 05:47:57;;;;;;;490.98;321.77;;;;;;;;;;5057544;28;20086;-77
2021/05/19 05:50:25;;;;;;;492.48;325.90;;;;;;;;;;5054917;28;20561;-77
2021/05/19 05:52:52;;;;;;;485.05;322.95;;;;;;;;;;5054825;28;20383;-77
2021/05/19 05:55:20;;;;;;;492.88;322.65;;;;;;;;;;5082256;28;20019;-77
2021/05/19 05:57:46;;;;;;;487.10;319.95;;;;;;;;;;5059361;28;21965;-76
2021/05/19 06:00:13;;;;;;;489.13;322.30;;;;;;;;;;5071980;28;20032;-75
2021/05/19 06:02:39;;;;;;;491.10;321.83;;;;;;;;;;5078647;28;20016;-76
2021/05/19 06:05:05;;;;;;;488.67;319.33;;;;;;;;;;5057934;28;20027;-77
2021/05/19 06:07:31;;;;;;;498.20;332.02;;;;;;;;;;5061784;28;20049;-77
2021/05/19 06:09:57;;;;;;;491.02;317.35;;;;;;;;;;5079864;28;20111;-76
2021/05/19 06:12:24;;;;;;;484.88;312.48;;;;;;;;;;5059795;28;20110;-76
2021/05/19 06:14:50;;;;;;;488.98;318.92;;;;;;;;;;5061991;28;20011;-76
2021/05/19 06:17:16;;;;;;;501.70;326.95;;;;;;;;;;5059814;28;20032;-76
2021/05/19 06:19:43;;;;;;;494.00;317.45;;;;;;;;;;5057770;28;20453;-76
2021/05/19 06:22:09;;;;;;;503.05;327.10;;;;;;;;;;5061494;28;20434;-76
2021/05/19 06:24:36;;;;;;;508.77;330.48;;;;;;;;;;5085257;28;20022;-76
2021/05/19 06:27:02;;;;;;;513.35;337.85;;;;;;;;;;5060661;28;20055;-75
2021/05/19 06:29:28;;;;;;;530.47;341.27;;;;;;;;;;5077257;28;20051;-77
2021/05/19 06:31:54;;;;;;;505.30;330.02;;;;;;;;;;5077820;28;20016;-78
2021/05/19 06:34:20;;;;;;;520.63;335.10;;;;;;;;;;5071374;28;20423;-76
2021/05/19 06:36:47;;;;;;;507.20;329.52;;;;;;;;;;5053636;28;20427;-76
2021/05/19 06:39:13;;;;;;;513.38;338.80;;;;;;;;;;5059025;28;20032;-76
2021/05/19 06:41:42;;;;;;;502.90;329.40;;;;;;;;;;5079371;28;20063;-76
2021/05/19 06:44:09;;;;;;;526.65;352.35;;;;;;;;;;5060549;28;20094;-76
2021/05/19 06:46:35;;;;;;;608.28;398.95;;;;;;;;;;5062789;28;20517;-75
2021/05/19 06:49:03;;;;;;;604.40;400.38;;;;;;;;;;5059333;28;20020;-77
2021/05/19 06:51:29;;;;;;;526.95;343.65;;;;;;;;;;5084341;28;20036;-76
2021/05/19 06:53:55;;;;;;;555.22;367.30;;;;;;;;;;5058358;28;20523;-78
2021/05/19 06:56:21;;;;;;;549.97;362.52;;;;;;;;;;5065160;28;20012;-77
2021/05/19 06:58:47;;;;;;;549.47;361.88;;;;;;;;;;5078401;28;20111;-77
2021/05/19 07:01:13;;;;;;;544.10;360.42;;;;;;;;;;5062809;28;20525;-76
2021/05/19 07:03:39;;;;;;;543.35;358.85;;;;;;;;;;5076393;28;20446;-76
2021/05/19 07:06:05;;;;;;;544.03;365.40;;;;;;;;;;5056528;28;20092;-78
2021/05/19 07:08:31;;;;;;;559.38;374.38;;;;;;;;;;5056361;28;20621;-78
2021/05/19 07:10:57;;;;;;;569.30;398.00;;;;;;;;;;5081324;28;20017;-77
2021/05/19 07:13:27;;;;;;;561.38;386.52;;;;;;;;;;5070773;28;20351;-76
2021/05/19 07:15:53;;;;;;;578.30;394.70;;;;;;;;;;5056707;28;20016;-76
2021/05/19 07:18:20;;;;;;;598.20;410.27;;;;;;;;;;5071915;28;20085;-76
2021/05/19 07:20:46;;;;;;;583.75;413.00;;;;;;;;;;5062054;28;20324;-81
2021/05/19 07:23:12;;;;;;;581.88;406.45;;;;;;;;;;5063451;28;20013;-77
2021/05/19 07:25:38;;;;;;;565.42;399.17;;;;;;;;;;5087395;28;20055;-76
2021/05/19 07:28:08;;;;;;;553.63;387.65;;;;;;;;;;5091143;28;20643;-75
2021/05/19 07:30:35;;;;;;;550.28;377.77;;;;;;;;;;5092843;28;20120;-76
2021/05/19 07:33:01;;;;;;;577.50;392.02;;;;;;;;;;5077037;28;20024;-75
2021/05/19 07:35:28;;;;;;;586.05;408.92;;;;;;;;;;5080935;28;20020;-76
2021/05/19 07:37:54;;;;;;;563.97;400.63;;;;;;;;;;5090785;28;20111;-77
2021/05/19 07:40:23;;;;;;;578.63;419.08;;;;;;;;;;5078025;28;20028;-76
2021/05/19 07:42:50;;;;;;;591.38;434.20;;;;;;;;;;5070866;28;20016;-74
2021/05/19 07:45:16;;;;;;;617.30;451.05;;;;;;;;;;5077033;28;20020;-76
2021/05/19 07:47:42;;;;;;;618.55;452.40;;;;;;;;;;5093897;28;20457;-76
2021/05/19 07:50:08;;;;;;;592.83;425.42;;;;;;;;;;5094818;28;20085;-76
2021/05/19 07:52:36;;;;;;;609.72;435.98;;;;;;;;;;5057489;28;20086;-78
2021/05/19 07:55:05;;;;;;;615.80;439.17;;;;;;;;;;5078028;28;20024;-77
2021/05/19 08:00:15;;;;;;;621.22;447.65;;;;;;;;;;5072535;28;20465;-76
2021/05/19 08:02:41;;;;;;;619.90;449.52;;;;;;;;;;5066514;28;20024;-76
2021/05/19 08:05:09;;;;;;;598.33;429.40;;;;;;;;;;5075583;28;20031;-76
2021/05/19 08:07:35;;;;;;;594.42;435.98;;;;;;;;;;5079203;28;20055;-76
2021/05/19 08:10:01;;;;;;;598.40;436.35;;;;;;;;;;5068091;28;20056;-75
2021/05/19 08:12:27;;;;;;;622.83;453.65;;;;;;;;;;5090240;28;20073;-74
2021/05/19 08:14:53;;;;;;;586.38;431.50;;;;;;;;;;5080801;28;20023;-76
2021/05/19 08:17:19;;;;;;;587.90;430.08;;;;;;;;;;5079135;28;20016;-75
2021/05/19 08:19:46;;;;;;;589.38;431.33;;;;;;;;;;5064335;28;20032;-74
2021/05/19 08:22:14;;;;;;;598.53;439.02;;;;;;;;;;5075287;28;20099;-80
2021/05/19 08:24:42;;;;;;;597.28;452.50;;;;;;;;;;5061152;28;20025;-74
2021/05/19 08:27:08;;;;;;;589.15;432.95;;;;;;;;;;5077483;28;20024;-75
2021/05/19 08:29:34;;;;;;;602.60;458.40;;;;;;;;;;5082327;28;20102;-75
2021/05/19 08:32:00;;;;;;;598.60;440.27;;;;;;;;;;5074577;28;20035;-75
2021/05/19 08:34:26;;;;;;;645.70;481.70;;;;;;;;;;5082344;28;20028;-75
2021/05/19 08:36:53;;;;;;;613.70;447.52;;;;;;;;;;5068208;28;20110;-74
2021/05/19 08:39:19;;;;;;;630.72;451.08;;;;;;;;;;5067476;28;20110;-75
2021/05/19 08:41:51;;;;;;;636.72;459.00;;;;;;;;;;5086317;28;20034;-74
2021/05/19 08:44:19;;;;;;;619.33;447.55;;;;;;;;;;5081930;28;20013;-76
2021/05/19 08:46:47;;;;;;;625.40;444.58;;;;;;;;;;5075376;28;20077;-75
2021/05/19 08:49:13;;;;;;;514.88;369.17;;;;;;;;;;5061235;28;20020;-74
2021/05/19 08:51:39;;;;;;;506.98;360.27;;;;;;;;;;5063703;28;20020;-75
2021/05/19 08:54:08;;;;;;;505.05;363.80;;;;;;;;;;5078620;28;20058;-74
2021/05/19 08:56:41;;;;;;;503.70;361.90;;;;;;;;;;5083789;28;20020;-74
2021/05/19 08:59:07;;;;;;;500.00;361.70;;;;;;;;;;5074320;28;20028;-74
2021/05/19 09:01:39;;;;;;;492.58;355.35;;;;;;;;;;5063914;28;20036;-75
2021/05/19 09:04:06;;;;;;;491.17;356.63;;;;;;;;;;5087647;28;20027;-75
2021/05/19 09:06:32;;;;;;;485.30;356.30;;;;;;;;;;5068244;28;20629;-76
2021/05/19 09:08:58;;;;;;;486.27;361.98;;;;;;;;;;5078982;28;20008;-73
2021/05/19 09:11:24;;;;;;;490.42;366.40;;;;;;;;;;5087920;28;20042;-76
2021/05/19 09:13:50;;;;;;;483.08;360.92;;;;;;;;;;5089741;28;20087;-76
2021/05/19 09:16:29;;;;;;;487.52;362.90;;;;;;;;;;5068511;28;20512;-74
2021/05/19 09:18:57;;;;;;;491.70;364.85;;;;;;;;;;5060274;28;20037;-75
2021/05/19 09:21:34;;;;;;;483.17;357.88;;;;;;;;;;5072750;28;20020;-75
2021/05/19 09:24:03;;;;;;;494.40;368.80;;;;;;;;;;5061492;28;20020;-75
2021/05/19 09:26:29;;;;;;;488.05;371.50;;;;;;;;;;5081086;28;20012;-75
2021/05/19 09:29:15;;;;;;;487.17;368.35;;;;;;;;;;5080303;28;20035;-76
2021/05/19 09:31:50;;;;;;;481.63;358.77;;;;;;;;;;5070919;28;20043;-74
2021/05/19 09:34:20;;;;;;;481.42;362.98;;;;;;;;;;5081247;28;20019;-75
2021/05/19 09:36:46;;;;;;;481.45;361.77;;;;;;;;;;5067268;28;20035;-75
2021/05/19 09:39:13;;;;;;;477.73;359.63;;;;;;;;;;5060264;28;20039;-74
2021/05/19 09:41:39;;;;;;;483.38;362.17;;;;;;;;;;5063903;28;20050;-75
2021/05/19 09:44:06;;;;;;;481.42;358.60;;;;;;;;;;5092241;28;20450;-75
2021/05/19 09:49:14;;;;;;;483.50;361.10;;;;;;;;;;5075194;28;20028;-74
2021/05/19 09:51:40;;;;;;;479.17;351.70;;;;;;;;;;5090351;28;20025;-74
2021/05/19 09:54:23;;;;;;;476.67;350.80;;;;;;;;;;5076718;28;20029;-78
2021/05/19 09:57:00;;;;;;;480.00;352.48;;;;;;;;;;5071258;28;20029;-74
2021/05/19 09:59:26;;;;;;;479.00;345.45;;;;;;;;;;5071598;28;20024;-75
2021/05/19 10:01:52;;;;;;;474.80;349.55;;;;;;;;;;5066617;28;20052;-75
2021/05/19 10:04:22;;;;;;;477.23;345.58;;;;;;;;;;5084441;28;20008;-74
2021/05/19 10:06:49;;;;;;;486.77;347.58;;;;;;;;;;5079693;28;20012;-75
2021/05/19 10:09:16;;;;;;;481.33;352.85;;;;;;;;;;5079223;28;20485;-75
2021/05/19 10:11:43;;;;;;;473.42;332.65;;;;;;;;;;5063082;28;20332;-75
2021/05/19 10:14:11;;;;;;;473.70;338.63;;;;;;;;;;5064201;28;20024;-76
2021/05/19 10:16:38;;;;;;;475.38;336.23;;;;;;;;;;5058580;28;20012;-74
2021/05/19 10:19:04;;;;;;;477.33;339.25;;;;;;;;;;5056696;28;20039;-75
2021/05/19 10:21:32;;;;;;;470.92;332.23;;;;;;;;;;5078827;28;20025;-75
2021/05/19 10:24:05;;;;;;;479.77;339.65;;;;;;;;;;5056965;28;20445;-75
2021/05/19 10:26:32;;;;;;;477.33;333.08;;;;;;;;;;5079308;28;20035;-75
2021/05/19 10:28:59;;;;;;;475.50;332.48;;;;;;;;;;5075788;28;20120;-74
2021/05/19 10:31:26;;;;;;;475.55;327.00;;;;;;;;;;5080267;28;20032;-75
2021/05/19 10:33:55;;;;;;;473.38;328.45;;;;;;;;;;5071763;28;20353;-75
2021/05/19 10:36:24;;;;;;;470.35;328.08;;;;;;;;;;5082176;28;20099;-76
2021/05/19 10:41:45;;;;;;;473.95;325.35;;;;;;;;;;5082438;28;20036;-77
2021/05/19 10:44:13;;;;;;;471.80;321.58;;;;;;;;;;5061497;28;20038;-77
2021/05/19 10:46:57;;;;;;;472.10;318.60;;;;;;;;;;5056901;28;20024;-77
2021/05/19 10:49:24;;;;;;;469.85;316.98;;;;;;;;;;5056014;28;20028;-77
2021/05/19 10:52:14;;;;;;;470.52;317.55;;;;;;;;;;5068659;28;20129;-77
2021/05/19 10:57:45;;;;;;;529.83;338.67;;;;;;;;;;5087188;28;20030;-77
2021/05/19 11:00:12;;;;;;;564.33;365.70;;;;;;;;;;5066513;28;20487;-78
2021/05/19 11:03:04;;;;;;;499.40;325.05;;;;;;;;;;5073270;28;20504;-77
2021/05/19 11:05:34;;;;;;;495.95;321.30;;;;;;;;;;5074913;28;20044;-75
2021/05/19 11:08:06;;;;;;;497.20;327.92;;;;;;;;;;5076464;28;20058;-75
2021/05/19 11:10:33;;;;;;;490.98;317.42;;;;;;;;;;5083154;28;20457;-77
2021/05/19 11:13:00;;;;;;;496.05;331.25;;;;;;;;;;5065719;28;20022;-76
2021/05/19 11:15:42;;;;;;;493.17;320.20;;;;;;;;;;5076344;28;20020;-78
2021/05/19 11:18:21;;;;;;;495.63;316.67;;;;;;;;;;5077072;28;20089;-75
2021/05/19 11:20:48;;;;;;;496.75;322.60;;;;;;;;;;5073330;28;20024;-75
2021/05/19 11:23:16;;;;;;;497.10;324.13;;;;;;;;;;5077071;28;20024;-76
2021/05/19 11:25:44;;;;;;;501.58;327.40;;;;;;;;;;5072674;28;20039;-76
2021/05/19 11:28:10;;;;;;;503.52;329.67;;;;;;;;;;5068775;28;20381;-76
2021/05/19 11:30:36;;;;;;;492.48;322.50;;;;;;;;;;5086571;28;20051;-76
2021/05/19 11:33:15;;;;;;;493.63;332.85;;;;;;;;;;5094803;28;20066;-76
2021/05/19 11:35:42;;;;;;;498.38;332.52;;;;;;;;;;5068794;28;20039;-76
2021/05/19 11:38:11;;;;;;;493.90;326.50;;;;;;;;;;5061291;28;20020;-76
2021/05/19 11:40:50;;;;;;;492.17;331.73;;;;;;;;;;5085656;28;20009;-75
2021/05/19 11:43:20;;;;;;;487.42;324.92;;;;;;;;;;5059395;28;20121;-76
2021/05/19 11:45:52;;;;;;;495.13;332.55;;;;;;;;;;5065418;28;20032;-76
2021/05/19 11:48:24;;;;;;;488.88;327.48;;;;;;;;;;5085026;28;20444;-75
2021/05/19 11:50:51;;;;;;;502.58;341.27;;;;;;;;;;5076040;28;20035;-76
2021/05/19 11:53:18;;;;;;;506.58;345.45;;;;;;;;;;5073710;28;20021;-76
2021/05/19 11:55:51;;;;;;;501.13;332.15;;;;;;;;;;5079658;28;20043;-75
2021/05/19 11:58:19;;;;;;;507.95;338.42;;;;;;;;;;5092081;28;20027;-76
2021/05/19 12:00:47;;;;;;;509.85;343.63;;;;;;;;;;5081051;28;20025;-75
2021/05/19 12:03:14;;;;;;;505.38;336.00;;;;;;;;;;5084849;28;20019;-75
2021/05/19 12:05:40;;;;;;;515.67;346.75;;;;;;;;;;5069121;28;20028;-76
2021/05/19 12:08:06;;;;;;;558.63;378.25;;;;;;;;;;5063315;28;20434;-75
2021/05/19 12:10:32;;;;;;;532.78;362.88;;;;;;;;;;5076127;28;20026;-74
2021/05/19 12:13:00;;;;;;;510.63;355.52;;;;;;;;;;5076131;28;20047;-77
2021/05/19 12:15:26;;;;;;;502.10;341.98;;;;;;;;;;5055367;28;20078;-76
2021/05/19 12:17:58;;;;;;;506.38;350.80;;;;;;;;;;5075680;28;20052;-75
2021/05/19 12:20:26;;;;;;;511.95;348.40;;;;;;;;;;5073083;28;20032;-75
2021/05/19 12:22:53;;;;;;;530.70;366.48;;;;;;;;;;5078846;28;20020;-75
2021/05/19 12:25:19;;;;;;;517.97;351.33;;;;;;;;;;5061250;28;20015;-77
2021/05/19 12:27:45;;;;;;;496.27;340.98;;;;;;;;;;5074279;28;20091;-76
2021/05/19 12:30:11;;;;;;;499.10;345.23;;;;;;;;;;5070395;28;20474;-76
2021/05/19 12:32:41;;;;;;;492.98;346.20;;;;;;;;;;5075203;28;20099;-76
2021/05/19 12:35:13;;;;;;;498.05;345.77;;;;;;;;;;5081132;28;20431;-75
2021/05/19 12:37:43;;;;;;;499.75;350.35;;;;;;;;;;5067600;28;20027;-75
2021/05/19 12:40:09;;;;;;;497.48;350.95;;;;;;;;;;5061245;28;20032;-76
2021/05/19 12:42:49;;;;;;;494.02;343.65;;;;;;;;;;5065217;28;20024;-76
2021/05/19 12:45:21;;;;;;;495.88;354.08;;;;;;;;;;5063744;28;20078;-76
2021/05/19 12:47:57;;;;;;;495.60;356.38;;;;;;;;;;5080690;28;20086;-77
2021/05/19 12:50:23;;;;;;;500.75;367.10;;;;;;;;;;5075044;28;20039;-75
2021/05/19 12:52:50;;;;;;;503.88;382.80;;;;;;;;;;5062366;28;20027;-76
2021/05/19 12:55:22;;;;;;;510.45;404.38;;;;;;;;;;5083103;28;20027;-76
2021/05/19 12:57:48;;;;;;;677.35;600.05;;;;;;;;;;5079855;28;20027;-76
2021/05/19 13:00:15;;;;;;;646.85;576.85;;;;;;;;;;5062599;28;20036;-76
2021/05/19 13:02:43;;;;;;;594.13;532.88;;;;;;;;;;5068858;28;20056;-76
2021/05/19 13:05:17;;;;;;;620.25;557.78;;;;;;;;;;5077750;28;20020;-76
2021/05/19 13:07:44;;;;;;;635.65;572.13;;;;;;;;;;5081243;28;20055;-77
2021/05/19 13:10:26;;;;;;;610.58;548.92;;;;;;;;;;5081746;28;20016;-77
2021/05/19 13:12:54;;;;;;;599.78;538.03;;;;;;;;;;5077659;28;20074;-76
2021/05/19 13:15:55;;;;;;;583.42;522.10;;;;;;;;;;5078464;28;20569;-78
2021/05/19 13:18:49;;;;;;;556.45;495.38;;;;;;;;;;5043777;28;20118;-75
2021/05/19 13:21:23;;;;;;;556.03;494.80;;;;;;;;;;5078977;28;20115;-76
2021/05/19 13:24:08;;;;;;;603.42;539.03;;;;;;;;;;5071167;28;20023;-77
2021/05/19 13:26:36;;;;;;;592.47;530.33;;;;;;;;;;5059913;28;20047;-78
2021/05/19 13:29:02;;;;;;;616.97;553.72;;;;;;;;;;5084083;28;20126;-77
2021/05/19 13:31:32;;;;;;;643.13;577.65;;;;;;;;;;5067761;28;20047;-77
2021/05/19 13:34:13;;;;;;;664.13;596.47;;;;;;;;;;5073630;28;20021;-77
2021/05/19 13:36:42;;;;;;;688.20;619.20;;;;;;;;;;5088199;28;20039;-77
2021/05/19 13:39:09;;;;;;;678.38;610.67;;;;;;;;;;5053811;28;20034;-76
2021/05/19 13:41:36;;;;;;;748.92;676.30;;;;;;;;;;5054141;28;20020;-76
2021/05/19 13:44:04;;;;;;;847.47;767.60;;;;;;;;;;5066199;28;20117;-77
2021/05/19 13:46:30;;;;;;;685.65;618.17;;;;;;;;;;5073342;28;20016;-78
2021/05/19 13:48:56;;;;;;;688.55;619.85;;;;;;;;;;5069534;28;20024;-77
2021/05/19 13:51:22;;;;;;;838.30;757.20;;;;;;;;;;5059270;28;20030;-76
2021/05/19 13:53:48;;;;;;;858.55;775.30;;;;;;;;;;5056696;28;20020;-76
2021/05/19 13:56:14;;;;;;;848.60;766.20;;;;;;;;;;5066662;28;20016;-76
2021/05/19 13:58:44;;;;;;;861.00;778.20;;;;;;;;;;5062082;28;20042;-76
2021/05/19 14:01:10;;;;;;;782.28;705.95;;;;;;;;;;5080541;28;20497;-78
2021/05/19 14:03:36;;;;;;;881.83;798.40;;;;;;;;;;5068733;28;20085;-76
2021/05/19 14:06:02;;;;;;;888.38;804.38;;;;;;;;;;5072147;28;20024;-77